sensor_id;sensor_type;location;lat;lon;timestamp;pressure;altitude;pressure_sealevel;temperature;humidity
40117;BME280;25829;50.228;18.936;2022-10-16T00:01:52;98744.91;;;12.05;71.61
40117;BME280;25829;50.228;18.936;2022-10-16T00:04:53;98744.06;;;12.05;71.72
40117;BME280;25829;50.228;18.936;2022-10-16T00:07:55;98748.16;;;12.00;71.82
40117;BME280;25829;50.228;18.936;2022-10-16T00:11:08;98749.38;;;11.98;71.94
40117;BME280;25829;50.228;18.936;2022-10-16T00:14:13;98748.97;;;11.94;72.07
40117;BME280;25829;50.228;18.936;2022-10-16T00:17:14;98747.34;;;11.93;72.25
40117;BME280;25829;50.228;18.936;2022-10-16T00:20:15;98744.91;;;11.92;72.28
40117;BME280;25829;50.228;18.936;2022-10-16T00:23:16;98747.16;;;11.88;72.25
40117;BME280;25829;50.228;18.936;2022-10-16T00:26:17;98741.69;;;11.83;72.76
40117;BME280;25829;50.228;18.936;2022-10-16T00:29:18;98744.97;;;11.72;72.64
40117;BME280;25829;50.228;18.936;2022-10-16T00:32:19;98747.00;;;11.70;72.89
40117;BME280;25829;50.228;18.936;2022-10-16T00:35:20;98754.53;;;11.73;73.20
40117;BME280;25829;50.228;18.936;2022-10-16T00:38:21;98747.63;;;11.72;73.02
40117;BME280;25829;50.228;18.936;2022-10-16T00:41:23;98747.00;;;11.70;73.01
40117;BME280;25829;50.228;18.936;2022-10-16T00:44:45;98746.41;;;11.68;73.27
40117;BME280;25829;50.228;18.936;2022-10-16T00:47:47;98740.13;;;11.62;73.31
40117;BME280;25829;50.228;18.936;2022-10-16T00:50:50;98752.53;;;11.62;73.47
40117;BME280;25829;50.228;18.936;2022-10-16T00:53:50;98754.13;;;11.63;72.96
40117;BME280;25829;50.228;18.936;2022-10-16T00:56:53;98757.19;;;11.66;72.99
40117;BME280;25829;50.228;18.936;2022-10-16T00:59:54;98751.88;;;11.66;73.18
40117;BME280;25829;50.228;18.936;2022-10-16T01:02:58;98753.53;;;11.67;73.21
40117;BME280;25829;50.228;18.936;2022-10-16T01:13:15;98760.25;;;11.63;73.30
40117;BME280;25829;50.228;18.936;2022-10-16T01:16:40;98761.25;;;11.62;73.27
40117;BME280;25829;50.228;18.936;2022-10-16T01:30:10;98759.25;;;11.58;73.60
40117;BME280;25829;50.228;18.936;2022-10-16T01:33:19;98755.78;;;11.57;73.74
40117;BME280;25829;50.228;18.936;2022-10-16T01:36:26;98751.31;;;11.58;73.53
40117;BME280;25829;50.228;18.936;2022-10-16T01:39:32;98743.56;;;11.56;73.52
40117;BME280;25829;50.228;18.936;2022-10-16T01:42:59;98751.09;;;11.52;73.66
40117;BME280;25829;50.228;18.936;2022-10-16T01:46:00;98758.63;;;11.42;73.73
40117;BME280;25829;50.228;18.936;2022-10-16T01:49:03;98761.09;;;11.37;73.96
40117;BME280;25829;50.228;18.936;2022-10-16T01:52:08;98756.63;;;11.31;74.07
40117;BME280;25829;50.228;18.936;2022-10-16T01:55:16;98756.03;;;11.29;74.06
40117;BME280;25829;50.228;18.936;2022-10-16T01:58:18;98766.78;;;11.27;74.17
40117;BME280;25829;50.228;18.936;2022-10-16T02:01:22;98767.81;;;11.26;74.10
40117;BME280;25829;50.228;18.936;2022-10-16T02:04:34;98768.84;;;11.25;73.98
40117;BME280;25829;50.228;18.936;2022-10-16T02:07:36;98773.91;;;11.20;74.00
40117;BME280;25829;50.228;18.936;2022-10-16T02:10:38;98778.38;;;11.20;74.08
40117;BME280;25829;50.228;18.936;2022-10-16T02:13:48;98777.97;;;11.16;73.81
40117;BME280;25829;50.228;18.936;2022-10-16T02:16:51;98790.97;;;11.11;74.08
40117;BME280;25829;50.228;18.936;2022-10-16T02:19:54;98796.06;;;11.06;73.92
40117;BME280;25829;50.228;18.936;2022-10-16T02:22:56;98789.94;;;10.99;74.06
40117;BME280;25829;50.228;18.936;2022-10-16T02:25:58;98789.53;;;10.95;73.96
40117;BME280;25829;50.228;18.936;2022-10-16T02:29:06;98792.81;;;10.91;73.90
40117;BME280;25829;50.228;18.936;2022-10-16T02:32:09;98784.88;;;10.84;74.17
40117;BME280;25829;50.228;18.936;2022-10-16T02:35:15;98787.28;;;10.79;74.11
40117;BME280;25829;50.228;18.936;2022-10-16T02:38:18;98788.50;;;10.76;74.32
40117;BME280;25829;50.228;18.936;2022-10-16T02:41:22;98780.78;;;10.75;74.00
40117;BME280;25829;50.228;18.936;2022-10-16T02:44:24;98780.56;;;10.70;74.04
40117;BME280;25829;50.228;18.936;2022-10-16T02:47:24;98783.16;;;10.56;74.22
40117;BME280;25829;50.228;18.936;2022-10-16T02:50:25;98781.50;;;10.42;74.67
40117;BME280;25829;50.228;18.936;2022-10-16T02:53:26;98779.25;;;10.32;74.86
40117;BME280;25829;50.228;18.936;2022-10-16T02:56:27;98792.41;;;10.26;75.43
40117;BME280;25829;50.228;18.936;2022-10-16T02:59:27;98797.66;;;10.19;75.87
40117;BME280;25829;50.228;18.936;2022-10-16T03:02:28;98798.66;;;10.18;75.86
40117;BME280;25829;50.228;18.936;2022-10-16T03:05:29;98798.44;;;10.20;76.14
40117;BME280;25829;50.228;18.936;2022-10-16T03:08:29;98804.16;;;10.23;75.79
40117;BME280;25829;50.228;18.936;2022-10-16T03:11:30;98804.91;;;10.17;75.51
40117;BME280;25829;50.228;18.936;2022-10-16T03:14:31;98805.94;;;10.16;75.75
40117;BME280;25829;50.228;18.936;2022-10-16T03:17:32;98807.78;;;10.16;75.96
40117;BME280;25829;50.228;18.936;2022-10-16T03:20:33;98809.38;;;10.17;75.89
40117;BME280;25829;50.228;18.936;2022-10-16T03:23:34;98815.28;;;10.19;75.79
40117;BME280;25829;50.228;18.936;2022-10-16T03:26:35;98801.69;;;10.15;75.82
40117;BME280;25829;50.228;18.936;2022-10-16T03:29:36;98806.56;;;10.18;75.74
40117;BME280;25829;50.228;18.936;2022-10-16T03:32:37;98806.75;;;10.17;75.65
40117;BME280;25829;50.228;18.936;2022-10-16T03:35:37;98819.31;;;10.08;75.84
40117;BME280;25829;50.228;18.936;2022-10-16T03:38:38;98810.53;;;10.01;75.91
40117;BME280;25829;50.228;18.936;2022-10-16T03:41:39;98829.97;;;10.00;75.88
40117;BME280;25829;50.228;18.936;2022-10-16T03:44:39;98824.91;;;9.98;75.81
40117;BME280;25829;50.228;18.936;2022-10-16T03:47:40;98832.41;;;9.95;76.07
40117;BME280;25829;50.228;18.936;2022-10-16T03:50:41;98828.97;;;9.94;75.89
40117;BME280;25829;50.228;18.936;2022-10-16T03:53:42;98832.19;;;9.96;76.20
40117;BME280;25829;50.228;18.936;2022-10-16T03:56:43;98830.78;;;10.00;76.08
40117;BME280;25829;50.228;18.936;2022-10-16T03:59:44;98829.97;;;10.00;75.79
40117;BME280;25829;50.228;18.936;2022-10-16T04:02:44;98814.38;;;9.98;76.03
40117;BME280;25829;50.228;18.936;2022-10-16T04:05:45;98823.50;;;10.02;76.06
40117;BME280;25829;50.228;18.936;2022-10-16T04:08:46;98825.13;;;10.03;76.22
40117;BME280;25829;50.228;18.936;2022-10-16T04:11:46;98823.75;;;10.07;76.15
40117;BME280;25829;50.228;18.936;2022-10-16T04:14:47;98824.78;;;10.13;76.20
40117;BME280;25829;50.228;18.936;2022-10-16T04:17:48;98831.06;;;10.12;76.09
40117;BME280;25829;50.228;18.936;2022-10-16T04:20:49;98835.69;;;10.03;76.30
40117;BME280;25829;50.228;18.936;2022-10-16T04:23:49;98829.38;;;9.98;76.55
40117;BME280;25829;50.228;18.936;2022-10-16T04:26:50;98835.06;;;10.01;76.59
40117;BME280;25829;50.228;18.936;2022-10-16T04:29:51;98819.69;;;10.05;76.58
40117;BME280;25829;50.228;18.936;2022-10-16T04:32:52;98821.94;;;10.08;76.48
40117;BME280;25829;50.228;18.936;2022-10-16T04:35:57;98822.75;;;10.08;76.34
40117;BME280;25829;50.228;18.936;2022-10-16T04:38:58;98819.47;;;10.06;76.37
40117;BME280;25829;50.228;18.936;2022-10-16T04:41:58;98830.03;;;10.06;76.10
40117;BME280;25829;50.228;18.936;2022-10-16T04:44:59;98837.31;;;10.04;76.12
40117;BME280;25829;50.228;18.936;2022-10-16T04:48:00;98837.13;;;10.06;76.13
40117;BME280;25829;50.228;18.936;2022-10-16T04:51:00;98847.03;;;9.97;75.91
40117;BME280;25829;50.228;18.936;2022-10-16T04:54:01;98844.72;;;9.87;76.39
40117;BME280;25829;50.228;18.936;2022-10-16T04:57:02;98856.28;;;9.86;76.54
40117;BME280;25829;50.228;18.936;2022-10-16T05:00:03;98861.56;;;9.86;76.47
40117;BME280;25829;50.228;18.936;2022-10-16T05:03:04;98856.47;;;9.85;76.38
40117;BME280;25829;50.228;18.936;2022-10-16T05:06:07;98851.56;;;9.82;76.31
40117;BME280;25829;50.228;18.936;2022-10-16T05:09:09;98852.97;;;9.78;76.24
40117;BME280;25829;50.228;18.936;2022-10-16T05:12:09;98854.53;;;9.72;76.50
40117;BME280;25829;50.228;18.936;2022-10-16T05:15:11;98867.13;;;9.70;76.75
40117;BME280;25829;50.228;18.936;2022-10-16T05:18:12;98869.91;;;9.69;76.54
40117;BME280;25829;50.228;18.936;2022-10-16T05:21:13;98867.13;;;9.70;76.70
40117;BME280;25829;50.228;18.936;2022-10-16T05:24:14;98872.00;;;9.73;76.62
40117;BME280;25829;50.228;18.936;2022-10-16T05:27:14;98875.25;;;9.75;76.71
40117;BME280;25829;50.228;18.936;2022-10-16T05:30:19;98882.75;;;9.78;76.62
40117;BME280;25829;50.228;18.936;2022-10-16T05:33:21;98881.75;;;9.79;76.62
40117;BME280;25829;50.228;18.936;2022-10-16T05:36:22;98886.41;;;9.77;76.33
40117;BME280;25829;50.228;18.936;2022-10-16T05:39:23;98895.06;;;9.71;76.65
40117;BME280;25829;50.228;18.936;2022-10-16T05:42:23;98891.81;;;9.69;76.53
40117;BME280;25829;50.228;18.936;2022-10-16T05:45:24;98897.97;;;9.76;76.65
40117;BME280;25829;50.228;18.936;2022-10-16T05:48:25;98892.28;;;9.79;76.55
40117;BME280;25829;50.228;18.936;2022-10-16T05:51:26;98900.44;;;9.84;76.82
40117;BME280;25829;50.228;18.936;2022-10-16T05:54:27;98900.06;;;9.87;76.57
40117;BME280;25829;50.228;18.936;2022-10-16T05:57:28;98905.94;;;9.90;76.84
40117;BME280;25829;50.228;18.936;2022-10-16T06:00:28;98907.38;;;9.92;76.89
40117;BME280;25829;50.228;18.936;2022-10-16T06:03:29;98899.72;;;9.97;76.87
40117;BME280;25829;50.228;18.936;2022-10-16T06:06:30;98907.06;;;10.02;76.60
40117;BME280;25829;50.228;18.936;2022-10-16T06:09:31;98915.97;;;10.01;76.39
40117;BME280;25829;50.228;18.936;2022-10-16T06:15:58;98935.09;;;10.09;76.88
40117;BME280;25829;50.228;18.936;2022-10-16T06:19:01;98932.28;;;10.11;76.58
40117;BME280;25829;50.228;18.936;2022-10-16T06:22:03;98928.63;;;10.12;77.21
40117;BME280;25829;50.228;18.936;2022-10-16T06:25:05;98937.38;;;10.19;76.94
40117;BME280;25829;50.228;18.936;2022-10-16T06:28:05;98940.66;;;10.28;76.85
40117;BME280;25829;50.228;18.936;2022-10-16T06:31:08;98943.16;;;10.36;77.02
40117;BME280;25829;50.228;18.936;2022-10-16T06:34:10;98959.25;;;10.48;76.71
40117;BME280;25829;50.228;18.936;2022-10-16T06:37:11;98952.63;;;10.58;76.69
40117;BME280;25829;50.228;18.936;2022-10-16T06:40:12;98957.53;;;10.68;76.90
40117;BME280;25829;50.228;18.936;2022-10-16T06:43:14;98953.38;;;10.80;76.76
40117;BME280;25829;50.228;18.936;2022-10-16T06:46:24;98949.13;;;10.93;76.64
40117;BME280;25829;50.228;18.936;2022-10-16T06:49:25;98958.13;;;11.05;76.99
40117;BME280;25829;50.228;18.936;2022-10-16T06:52:28;98948.22;;;11.20;76.82
40117;BME280;25829;50.228;18.936;2022-10-16T06:55:28;98953.31;;;11.35;76.79
40117;BME280;25829;50.228;18.936;2022-10-16T06:58:29;98959.84;;;11.52;77.04
40117;BME280;25829;50.228;18.936;2022-10-16T07:01:31;98959.06;;;11.72;76.44
40117;BME280;25829;50.228;18.936;2022-10-16T07:04:32;98959.25;;;11.90;76.48
40117;BME280;25829;50.228;18.936;2022-10-16T07:07:33;98964.00;;;12.08;75.53
40117;BME280;25829;50.228;18.936;2022-10-16T07:10:33;98963.53;;;12.24;75.22
40117;BME280;25829;50.228;18.936;2022-10-16T07:13:35;98969.03;;;12.43;75.04
40117;BME280;25829;50.228;18.936;2022-10-16T07:16:36;98962.25;;;12.60;74.31
40117;BME280;25829;50.228;18.936;2022-10-16T07:19:37;98964.00;;;12.80;73.71
40117;BME280;25829;50.228;18.936;2022-10-16T07:22:38;98969.03;;;12.94;73.46
40117;BME280;25829;50.228;18.936;2022-10-16T07:25:38;98966.13;;;13.09;73.26
40117;BME280;25829;50.228;18.936;2022-10-16T07:28:39;98967.72;;;13.24;71.92
40117;BME280;25829;50.228;18.936;2022-10-16T07:31:40;98970.06;;;13.38;70.79
40117;BME280;25829;50.228;18.936;2022-10-16T07:34:41;98973.66;;;13.57;70.95
40117;BME280;25829;50.228;18.936;2022-10-16T07:37:46;98976.94;;;13.78;70.40
40117;BME280;25829;50.228;18.936;2022-10-16T07:40:47;98980.47;;;13.97;70.00
40117;BME280;25829;50.228;18.936;2022-10-16T07:43:49;98982.16;;;14.16;69.39
40117;BME280;25829;50.228;18.936;2022-10-16T07:46:51;98981.84;;;14.31;68.68
40117;BME280;25829;50.228;18.936;2022-10-16T07:49:51;98987.22;;;14.43;68.79
40117;BME280;25829;50.228;18.936;2022-10-16T07:52:52;98985.94;;;14.52;68.27
40117;BME280;25829;50.228;18.936;2022-10-16T07:56:00;98984.22;;;14.57;67.81
40117;BME280;25829;50.228;18.936;2022-10-16T07:59:01;98986.44;;;14.60;67.08
40117;BME280;25829;50.228;18.936;2022-10-16T08:02:02;98990.28;;;14.65;66.81
40117;BME280;25829;50.228;18.936;2022-10-16T08:05:03;98997.78;;;14.68;66.17
40117;BME280;25829;50.228;18.936;2022-10-16T08:08:03;99001.66;;;14.72;65.63
40117;BME280;25829;50.228;18.936;2022-10-16T08:11:04;99000.16;;;14.76;66.17
40117;BME280;25829;50.228;18.936;2022-10-16T08:14:05;98995.22;;;14.79;66.08
40117;BME280;25829;50.228;18.936;2022-10-16T08:17:06;98987.63;;;14.83;65.88
40117;BME280;25829;50.228;18.936;2022-10-16T08:20:07;98989.41;;;14.89;65.42
40117;BME280;25829;50.228;18.936;2022-10-16T08:23:12;98989.91;;;14.98;65.55
40117;BME280;25829;50.228;18.936;2022-10-16T08:26:13;98989.81;;;15.04;65.29
40117;BME280;25829;50.228;18.936;2022-10-16T08:29:14;98994.00;;;15.12;65.03
40117;BME280;25829;50.228;18.936;2022-10-16T08:32:15;98994.88;;;15.24;64.93
40117;BME280;25829;50.228;18.936;2022-10-16T08:35:16;99008.69;;;15.33;64.63
40117;BME280;25829;50.228;18.936;2022-10-16T08:38:17;99011.06;;;15.41;64.40
40117;BME280;25829;50.228;18.936;2022-10-16T08:44:58;99009.38;;;15.59;63.95
40117;BME280;25829;50.228;18.936;2022-10-16T08:48:17;99009.94;;;15.61;63.66
40117;BME280;25829;50.228;18.936;2022-10-16T08:51:33;99007.44;;;15.66;63.35
40117;BME280;25829;50.228;18.936;2022-10-16T08:54:44;99015.78;;;15.69;63.17
40117;BME280;25829;50.228;18.936;2022-10-16T08:57:47;99014.72;;;15.70;63.20
40117;BME280;25829;50.228;18.936;2022-10-16T09:00:54;99016.94;;;15.73;63.21
40117;BME280;25829;50.228;18.936;2022-10-16T09:07:25;99010.72;;;15.79;62.80
40117;BME280;25829;50.228;18.936;2022-10-16T09:10:36;99010.47;;;15.81;63.07
40117;BME280;25829;50.228;18.936;2022-10-16T09:13:54;99012.81;;;15.89;63.07
40117;BME280;25829;50.228;18.936;2022-10-16T09:17:07;99013.63;;;16.01;63.19
40117;BME280;25829;50.228;18.936;2022-10-16T09:20:46;99023.81;;;16.16;62.91
40117;BME280;25829;50.228;18.936;2022-10-16T09:23:50;99022.72;;;16.36;63.35
40117;BME280;25829;50.228;18.936;2022-10-16T09:26:51;99028.16;;;16.64;62.80
40117;BME280;25829;50.228;18.936;2022-10-16T09:29:52;99026.59;;;16.92;61.89
40117;BME280;25829;50.228;18.936;2022-10-16T09:32:54;99027.97;;;17.18;61.15
40117;BME280;25829;50.228;18.936;2022-10-16T09:35:56;99020.78;;;17.47;59.41
40117;BME280;25829;50.228;18.936;2022-10-16T09:39:04;99037.66;;;17.81;59.88
40117;BME280;25829;50.228;18.936;2022-10-16T09:42:05;99039.66;;;18.03;56.90
40117;BME280;25829;50.228;18.936;2022-10-16T09:45:21;99031.28;;;18.11;57.99
40117;BME280;25829;50.228;18.936;2022-10-16T09:48:27;99036.09;;;18.14;58.25
40117;BME280;25829;50.228;18.936;2022-10-16T09:51:36;99040.94;;;18.17;57.82
40117;BME280;25829;50.228;18.936;2022-10-16T09:54:37;99035.53;;;18.12;57.29
40117;BME280;25829;50.228;18.936;2022-10-16T09:57:51;99028.59;;;18.11;57.20
40117;BME280;25829;50.228;18.936;2022-10-16T10:00:53;99036.50;;;18.06;58.04
40117;BME280;25829;50.228;18.936;2022-10-16T10:03:57;99030.38;;;18.05;58.33
40117;BME280;25829;50.228;18.936;2022-10-16T10:07:02;99033.50;;;18.02;58.24
40117;BME280;25829;50.228;18.936;2022-10-16T10:10:05;99031.91;;;18.01;58.33
40117;BME280;25829;50.228;18.936;2022-10-16T10:13:20;99039.91;;;18.01;56.16
40117;BME280;25829;50.228;18.936;2022-10-16T10:16:24;99036.31;;;17.96;57.96
40117;BME280;25829;50.228;18.936;2022-10-16T10:19:27;99040.50;;;17.91;58.30
40117;BME280;25829;50.228;18.936;2022-10-16T10:22:42;99045.84;;;17.91;58.31
40117;BME280;25829;50.228;18.936;2022-10-16T10:29:49;99045.38;;;17.95;58.56
40117;BME280;25829;50.228;18.936;2022-10-16T10:36:40;99043.84;;;17.99;58.72
40117;BME280;25829;50.228;18.936;2022-10-16T10:39:53;99041.78;;;18.01;58.57
40117;BME280;25829;50.228;18.936;2022-10-16T10:43:53;99047.44;;;18.04;59.09
40117;BME280;25829;50.228;18.936;2022-10-16T10:46:34;99043.94;;;18.04;58.63
40117;BME280;25829;50.228;18.936;2022-10-16T10:49:48;99043.13;;;18.03;58.85
40117;BME280;25829;50.228;18.936;2022-10-16T10:56:16;99032.94;;;18.00;58.48
40117;BME280;25829;50.228;18.936;2022-10-16T10:59:28;99021.91;;;17.97;59.02
40117;BME280;25829;50.228;18.936;2022-10-16T11:02:40;99023.75;;;17.96;58.60
40117;BME280;25829;50.228;18.936;2022-10-16T11:06:22;99024.09;;;18.00;57.63
40117;BME280;25829;50.228;18.936;2022-10-16T11:09:29;99022.56;;;18.04;58.97
40117;BME280;25829;50.228;18.936;2022-10-16T11:12:38;99025.09;;;18.10;59.09
40117;BME280;25829;50.228;18.936;2022-10-16T11:15:41;99023.31;;;18.16;59.09
40117;BME280;25829;50.228;18.936;2022-10-16T11:18:50;99027.38;;;18.19;59.09
40117;BME280;25829;50.228;18.936;2022-10-16T11:25:22;99029.47;;;18.16;58.90
40117;BME280;25829;50.228;18.936;2022-10-16T11:28:34;99027.69;;;18.22;58.85
40117;BME280;25829;50.228;18.936;2022-10-16T11:31:42;99035.72;;;18.22;58.57
40117;BME280;25829;50.228;18.936;2022-10-16T11:34:50;99026.06;;;18.21;58.33
40117;BME280;25829;50.228;18.936;2022-10-16T11:37:53;99030.84;;;18.19;58.57
40117;BME280;25829;50.228;18.936;2022-10-16T11:41:00;99036.69;;;18.16;58.80
40117;BME280;25829;50.228;18.936;2022-10-16T11:47:48;99034.81;;;18.16;59.01
40117;BME280;25829;50.228;18.936;2022-10-16T11:51:20;99033.75;;;18.17;58.21
40117;BME280;25829;50.228;18.936;2022-10-16T11:54:40;99037.00;;;18.20;58.75
40117;BME280;25829;50.228;18.936;2022-10-16T11:57:50;99036.50;;;18.23;58.94
40117;BME280;25829;50.228;18.936;2022-10-16T12:01:01;99041.38;;;18.26;59.01
40117;BME280;25829;50.228;18.936;2022-10-16T12:04:30;99038.69;;;18.26;58.46
40117;BME280;25829;50.228;18.936;2022-10-16T12:07:43;99045.06;;;18.25;58.41
40117;BME280;25829;50.228;18.936;2022-10-16T12:10:48;99047.75;;;18.25;58.67
40117;BME280;25829;50.228;18.936;2022-10-16T12:13:49;99050.41;;;18.25;59.01
40117;BME280;25829;50.228;18.936;2022-10-16T12:16:52;99055.06;;;18.29;59.38
40117;BME280;25829;50.228;18.936;2022-10-16T12:20:53;99066.13;;;18.38;59.00
40117;BME280;25829;50.228;18.936;2022-10-16T12:23:21;99069.69;;;18.44;59.25
40117;BME280;25829;50.228;18.936;2022-10-16T12:26:32;99068.22;;;18.53;59.21
40117;BME280;25829;50.228;18.936;2022-10-16T12:29:37;99064.88;;;18.62;58.92
40117;BME280;25829;50.228;18.936;2022-10-16T12:32:39;99070.31;;;18.68;58.60
40117;BME280;25829;50.228;18.936;2022-10-16T12:35:43;99067.63;;;18.68;58.59
40117;BME280;25829;50.228;18.936;2022-10-16T12:42:01;99059.84;;;18.66;58.41
40117;BME280;25829;50.228;18.936;2022-10-16T12:48:25;99059.63;;;18.51;59.10
40117;BME280;25829;50.228;18.936;2022-10-16T12:54:31;99071.72;;;18.36;59.19
40117;BME280;25829;50.228;18.936;2022-10-16T12:57:45;99067.34;;;18.30;59.33
40117;BME280;25829;50.228;18.936;2022-10-16T13:01:11;99071.78;;;18.25;59.21
40117;BME280;25829;50.228;18.936;2022-10-16T13:04:29;99075.19;;;18.20;59.47
40117;BME280;25829;50.228;18.936;2022-10-16T13:07:54;99071.38;;;18.16;59.57
40117;BME280;25829;50.228;18.936;2022-10-16T13:11:26;99081.00;;;18.17;59.76
40117;BME280;25829;50.228;18.936;2022-10-16T13:28:15;99084.09;;;18.09;59.76
40117;BME280;25829;50.228;18.936;2022-10-16T13:31:22;99082.81;;;18.11;59.92
40117;BME280;25829;50.228;18.936;2022-10-16T13:34:24;99075.59;;;18.12;59.67
40117;BME280;25829;50.228;18.936;2022-10-16T13:37:25;99082.22;;;18.09;59.28
40117;BME280;25829;50.228;18.936;2022-10-16T13:40:27;99082.00;;;18.11;59.64
40117;BME280;25829;50.228;18.936;2022-10-16T13:46:39;99059.09;;;18.15;59.08
40117;BME280;25829;50.228;18.936;2022-10-16T13:49:40;99067.44;;;18.19;58.70
40117;BME280;25829;50.228;18.936;2022-10-16T13:52:40;99059.75;;;18.22;58.57
40117;BME280;25829;50.228;18.936;2022-10-16T13:55:41;99061.94;;;18.25;58.57
40117;BME280;25829;50.228;18.936;2022-10-16T13:58:43;99057.06;;;18.22;58.46
40117;BME280;25829;50.228;18.936;2022-10-16T14:01:45;99057.78;;;18.17;58.47
40117;BME280;25829;50.228;18.936;2022-10-16T14:04:46;99070.00;;;18.13;57.86
40117;BME280;25829;50.228;18.936;2022-10-16T14:07:49;99070.16;;;18.07;58.34
40117;BME280;25829;50.228;18.936;2022-10-16T14:10:57;99082.97;;;18.05;58.11
40117;BME280;25829;50.228;18.936;2022-10-16T14:13:58;99089.31;;;18.04;58.10
40117;BME280;25829;50.228;18.936;2022-10-16T14:16:59;99091.44;;;18.02;58.19
40117;BME280;25829;50.228;18.936;2022-10-16T14:20:03;99097.84;;;18.01;58.22
40117;BME280;25829;50.228;18.936;2022-10-16T14:23:30;99102.94;;;18.02;57.92
40117;BME280;25829;50.228;18.936;2022-10-16T14:26:42;99105.94;;;18.06;58.17
40117;BME280;25829;50.228;18.936;2022-10-16T14:29:43;99103.25;;;18.06;58.44
40117;BME280;25829;50.228;18.936;2022-10-16T14:33:46;99096.63;;;18.08;57.85
40117;BME280;25829;50.228;18.936;2022-10-16T14:36:40;99116.34;;;18.07;58.26
40117;BME280;25829;50.228;18.936;2022-10-16T14:39:41;99115.81;;;18.05;58.24
40117;BME280;25829;50.228;18.936;2022-10-16T14:42:43;99112.56;;;18.03;58.17
40117;BME280;25829;50.228;18.936;2022-10-16T14:45:51;99107.69;;;18.00;58.38
40117;BME280;25829;50.228;18.936;2022-10-16T14:49:18;99109.78;;;17.98;58.18
40117;BME280;25829;50.228;18.936;2022-10-16T14:52:18;99108.88;;;17.92;58.27
40117;BME280;25829;50.228;18.936;2022-10-16T14:55:19;99111.19;;;17.89;58.30
40117;BME280;25829;50.228;18.936;2022-10-16T14:58:22;99112.47;;;17.86;58.31
40117;BME280;25829;50.228;18.936;2022-10-16T15:01:23;99121.53;;;17.85;58.63
40117;BME280;25829;50.228;18.936;2022-10-16T15:04:24;99118.31;;;17.83;58.73
40117;BME280;25829;50.228;18.936;2022-10-16T15:07:25;99117.25;;;17.84;58.85
40117;BME280;25829;50.228;18.936;2022-10-16T15:10:27;99116.47;;;17.84;58.92
40117;BME280;25829;50.228;18.936;2022-10-16T15:13:29;99116.13;;;17.80;59.04
40117;BME280;25829;50.228;18.936;2022-10-16T15:16:30;99115.78;;;17.77;59.28
40117;BME280;25829;50.228;18.936;2022-10-16T15:19:31;99125.31;;;17.73;59.29
40117;BME280;25829;50.228;18.936;2022-10-16T15:22:32;99108.97;;;17.69;59.58
40117;BME280;25829;50.228;18.936;2022-10-16T15:25:39;99113.16;;;17.65;59.66
40117;BME280;25829;50.228;18.936;2022-10-16T15:28:42;99128.03;;;17.61;59.83
40117;BME280;25829;50.228;18.936;2022-10-16T15:31:42;99136.16;;;17.54;60.20
40117;BME280;25829;50.228;18.936;2022-10-16T15:34:43;99135.47;;;17.47;60.59
40117;BME280;25829;50.228;18.936;2022-10-16T15:37:44;99130.75;;;17.37;60.96
40117;BME280;25829;50.228;18.936;2022-10-16T15:40:47;99138.53;;;17.27;61.26
40117;BME280;25829;50.228;18.936;2022-10-16T15:43:49;99141.22;;;17.15;61.67
40117;BME280;25829;50.228;18.936;2022-10-16T15:46:50;99143.03;;;17.03;61.95
40117;BME280;25829;50.228;18.936;2022-10-16T15:49:51;99151.88;;;16.92;62.28
40117;BME280;25829;50.228;18.936;2022-10-16T15:52:52;99157.41;;;16.79;62.73
40117;BME280;25829;50.228;18.936;2022-10-16T15:55:52;99155.34;;;16.69;63.07
40117;BME280;25829;50.228;18.936;2022-10-16T15:58:53;99160.88;;;16.56;63.29
40117;BME280;25829;50.228;18.936;2022-10-16T16:01:54;99169.66;;;16.44;63.65
40117;BME280;25829;50.228;18.936;2022-10-16T16:04:55;99166.50;;;16.36;63.99
40117;BME280;25829;50.228;18.936;2022-10-16T16:07:56;99173.00;;;16.28;64.32
40117;BME280;25829;50.228;18.936;2022-10-16T16:11:02;99172.69;;;16.18;64.80
40117;BME280;25829;50.228;18.936;2022-10-16T16:14:04;99165.47;;;16.07;65.01
40117;BME280;25829;50.228;18.936;2022-10-16T16:17:05;99169.34;;;15.92;65.36
40117;BME280;25829;50.228;18.936;2022-10-16T16:20:07;99173.66;;;15.75;65.88
40117;BME280;25829;50.228;18.936;2022-10-16T16:23:08;99177.44;;;15.67;66.17
40117;BME280;25829;50.228;18.936;2022-10-16T16:26:14;99175.44;;;15.63;66.41
40117;BME280;25829;50.228;18.936;2022-10-16T16:29:15;99185.94;;;15.58;66.52
40117;BME280;25829;50.228;18.936;2022-10-16T16:32:16;99185.00;;;15.52;66.60
40117;BME280;25829;50.228;18.936;2022-10-16T16:35:17;99192.44;;;15.43;66.61
40117;BME280;25829;50.228;18.936;2022-10-16T16:38:18;99196.81;;;15.38;66.78
40117;BME280;25829;50.228;18.936;2022-10-16T16:41:21;99210.16;;;15.31;66.84
40117;BME280;25829;50.228;18.936;2022-10-16T16:44:22;99213.66;;;15.25;66.94
40117;BME280;25829;50.228;18.936;2022-10-16T16:47:23;99220.06;;;15.17;67.00
40117;BME280;25829;50.228;18.936;2022-10-16T16:50:23;99221.75;;;15.12;67.28
40117;BME280;25829;50.228;18.936;2022-10-16T16:53:24;99224.25;;;15.06;67.28
40117;BME280;25829;50.228;18.936;2022-10-16T16:56:25;99227.84;;;14.94;67.51
40117;BME280;25829;50.228;18.936;2022-10-16T16:59:26;99237.97;;;14.78;68.16
40117;BME280;25829;50.228;18.936;2022-10-16T17:02:27;99230.69;;;14.67;68.27
40117;BME280;25829;50.228;18.936;2022-10-16T17:05:28;99240.13;;;14.63;68.46
40117;BME280;25829;50.228;18.936;2022-10-16T17:08:29;99238.31;;;14.57;68.35
40117;BME280;25829;50.228;18.936;2022-10-16T17:11:30;99240.00;;;14.51;68.66
40117;BME280;25829;50.228;18.936;2022-10-16T17:14:31;99246.34;;;14.44;68.78
40117;BME280;25829;50.228;18.936;2022-10-16T17:17:32;99261.50;;;14.36;68.85